Time;durP1;ratioP1;P1;durP2;ratioP2;P2;SDS_P1;SDS_P2;PMS_P1;PMS_P2;Temp;Humidity;BMP_temperature;BMP_pressure;BME280_temperature;BME280_humidity;BME280_pressure;Samples;Min_cycle;Max_cycle;Signal;HPM_P1;HPM_P2
2022/12/17 13:07:26;;;;;;;2.65;1.30;;;;;;;8.55;88.60;99023.66;1539396;92;21068;-75
2022/12/17 13:09:57;;;;;;;2.02;1.32;;;;;;;8.44;87.64;99035.97;1536111;91;21111;-76
2022/12/17 13:12:44;;;;;;;3.22;1.57;;;;;;;8.45;87.78;99046.73;1564766;91;22004;-75
2022/12/17 13:15:37;;;;;;;3.02;1.50;;;;;;;8.42;87.57;99053.28;1555582;91;21049;-76
2022/12/17 13:18:24;;;;;;;3.62;1.75;;;;;;;8.34;86.88;99057.25;1562951;91;21045;-75
2022/12/17 13:21:01;;;;;;;2.58;1.35;;;;;;;8.39;86.58;99073.56;1553533;91;21078;-77
2022/12/17 13:23:35;;;;;;;2.85;1.40;;;;;;;8.25;86.30;99065.16;1565182;91;21006;-76
2022/12/17 13:26:40;;;;;;;2.98;1.37;;;;;;;8.21;86.58;99082.93;1564065;91;21112;-75
2022/12/17 13:29:28;;;;;;;3.67;1.37;;;;;;;8.09;86.74;99091.30;1559453;91;21060;-76
2022/12/17 13:32:21;;;;;;;2.72;1.37;;;;;;;8.07;87.05;99104.70;1562700;91;21038;-75
2022/12/17 13:35:21;;;;;;;5.50;1.60;;;;;;;8.04;87.30;99104.77;1558434;91;21069;-75
2022/12/17 13:38:31;;;;;;;3.00;1.30;;;;;;;8.04;87.09;99113.83;1550535;91;21588;-76
2022/12/17 13:41:17;;;;;;;1.57;1.10;;;;;;;7.89;86.20;99104.53;1561627;91;21134;-75
2022/12/17 13:43:47;;;;;;;6.47;1.92;;;;;;;7.87;86.03;99115.79;1560730;91;21049;-75
2022/12/17 13:46:26;;;;;;;1.30;1.07;;;;;;;7.79;85.78;99113.75;1556382;90;21573;-76
2022/12/17 13:49:03;;;;;;;2.62;1.15;;;;;;;7.79;86.09;99117.63;1557701;91;21021;-75
2022/12/17 13:51:34;;;;;;;3.20;1.20;;;;;;;7.69;86.34;99132.42;1558915;91;21054;-76
2022/12/17 13:54:03;;;;;;;2.35;1.37;;;;;;;7.69;86.59;99128.53;1563170;91;21379;-77
2022/12/17 13:56:36;;;;;;;2.62;1.42;;;;;;;7.54;86.47;99133.03;1569286;91;21050;-75
2022/12/17 13:59:04;;;;;;;3.60;1.60;;;;;;;7.54;87.09;99139.92;1560880;91;21061;-77
2022/12/17 14:01:31;;;;;;;4.58;1.90;;;;;;;7.41;86.65;99147.42;1565181;91;21033;-77
2022/12/17 14:04:01;;;;;;;4.20;2.12;;;;;;;7.39;87.14;99151.31;1566170;90;21014;-76
2022/12/17 14:06:34;;;;;;;4.28;1.92;;;;;;;7.34;87.06;99154.37;1556807;91;21653;-75
2022/12/17 14:09:02;;;;;;;4.58;2.17;;;;;;;7.22;87.15;99168.73;1566947;91;21537;-76
2022/12/17 14:14:24;;;;;;;4.60;2.45;;;;;;;7.06;87.57;99160.28;1568768;91;21068;-75
2022/12/17 14:16:51;;;;;;;4.03;2.20;;;;;;;6.98;87.67;99173.27;1554501;91;21093;-77
2022/12/17 14:19:18;;;;;;;5.30;2.75;;;;;;;6.89;88.36;99175.52;1568779;90;21081;-75
2022/12/17 14:21:46;;;;;;;6.80;2.47;;;;;;;6.87;88.44;99183.72;1554693;91;21096;-75
2022/12/17 14:24:13;;;;;;;5.25;2.52;;;;;;;6.73;88.58;99183.83;1568786;91;21033;-76
2022/12/17 14:26:50;;;;;;;6.15;2.42;;;;;;;6.72;88.87;99191.59;1555354;90;21002;-75
2022/12/17 14:29:27;;;;;;;5.25;2.52;;;;;;;6.66;89.14;99204.55;1568682;91;21102;-75
2022/12/17 14:32:01;;;;;;;9.53;2.95;;;;;;;6.57;88.84;99208.92;1557586;90;21014;-76
2022/12/17 14:34:32;;;;;;;6.62;3.25;;;;;;;6.57;89.23;99210.22;1570056;90;21022;-76
2022/12/17 14:37:00;;;;;;;9.80;3.10;;;;;;;6.49;89.24;99212.00;1550221;91;21049;-75
2022/12/17 14:39:32;;;;;;;6.12;3.10;;;;;;;6.47;89.17;99209.86;1555461;91;21026;-75
2022/12/17 14:42:28;;;;;;;5.42;2.70;;;;;;;6.46;88.85;99224.92;1565053;91;21046;-76
2022/12/17 14:45:02;;;;;;;6.12;2.52;;;;;;;6.45;88.47;99232.70;1557996;91;21081;-75
2022/12/17 14:47:35;;;;;;;9.28;2.67;;;;;;;6.43;88.36;99238.31;1565016;91;21054;-76
2022/12/17 14:50:18;;;;;;;6.92;2.60;;;;;;;6.29;88.81;99250.01;1559306;91;20994;-78
2022/12/17 14:52:54;;;;;;;6.15;2.77;;;;;;;6.28;88.94;99248.27;1538254;92;21951;-75
2022/12/17 14:55:35;;;;;;;4.22;2.05;;;;;;;6.23;89.16;99252.59;1581708;90;21795;-78
2022/12/17 14:58:15;;;;;;;4.60;2.20;;;;;;;6.21;89.06;99255.20;1587156;90;21012;-77
2022/12/17 15:00:55;;;;;;;8.43;2.30;;;;;;;6.17;88.99;99258.23;1506977;94;21014;-77
2022/12/17 15:03:29;;;;;;;9.95;3.00;;;;;;;6.21;89.21;99253.91;1547315;91;21021;-77
2022/12/17 15:06:09;;;;;;;11.18;3.35;;;;;;;6.20;89.09;99268.11;1586896;90;21036;-75
2022/12/17 15:08:46;;;;;;;8.03;3.58;;;;;;;6.19;88.79;99264.69;1585681;90;21489;-75
2022/12/17 15:11:17;;;;;;;8.85;3.77;;;;;;;6.15;88.68;99275.45;1586132;90;20992;-75
2022/12/17 15:13:43;;;;;;;8.28;3.62;;;;;;;6.21;88.51;99279.73;1580675;90;21008;-75
2022/12/17 15:16:10;;;;;;;5.60;2.70;;;;;;;6.13;88.84;99291.38;1586708;90;21019;-76
2022/12/17 15:18:36;;;;;;;5.17;2.25;;;;;;;6.15;88.71;99303.84;1579986;90;21013;-78
2022/12/17 15:21:03;;;;;;;3.98;1.98;;;;;;;6.16;88.66;99302.96;1585660;90;21044;-77
2022/12/17 15:23:31;;;;;;;6.10;3.08;;;;;;;6.14;88.79;99312.44;1580289;90;20997;-77
2022/12/17 15:25:57;;;;;;;5.83;2.45;;;;;;;6.16;88.54;99322.33;1581852;90;21477;-78
2022/12/17 15:28:23;;;;;;;5.08;2.45;;;;;;;6.15;88.68;99321.91;1581915;90;21024;-78
2022/12/17 15:30:50;;;;;;;3.50;2.15;;;;;;;6.10;88.56;99328.80;1588631;89;20993;-78
2022/12/17 15:33:17;;;;;;;5.25;2.10;;;;;;;6.15;88.40;99328.37;1582675;90;21024;-77
2022/12/17 15:35:44;;;;;;;12.45;4.10;;;;;;;6.17;88.32;99335.67;1583737;89;21040;-78
2022/12/17 15:38:11;;;;;;;14.18;5.22;;;;;;;6.08;88.42;99343.44;1582695;90;21517;-77
2022/12/17 15:40:39;;;;;;;14.78;4.85;;;;;;;6.12;88.29;99353.33;1586331;90;20987;-77
2022/12/17 15:43:10;;;;;;;14.35;4.58;;;;;;;6.08;88.02;99359.36;1582683;90;21012;-77
2022/12/17 15:45:42;;;;;;;14.45;4.53;;;;;;;6.06;87.96;99368.39;1578346;90;20992;-78
2022/12/17 15:48:10;;;;;;;10.18;3.95;;;;;;;6.05;87.75;99365.81;1587768;89;21067;-77
2022/12/17 15:50:37;;;;;;;7.30;2.75;;;;;;;6.01;87.73;99366.68;1580017;89;21521;-78
2022/12/17 15:53:04;;;;;;;9.78;3.62;;;;;;;5.98;87.64;99368.84;1602010;89;21021;-77
2022/12/17 15:55:31;;;;;;;7.30;3.62;;;;;;;5.92;87.46;99365.81;1596093;89;20982;-77
2022/12/17 15:57:58;;;;;;;6.85;3.80;;;;;;;5.95;87.75;99362.42;1595389;88;21501;-77
2022/12/17 16:00:24;;;;;;;6.12;3.40;;;;;;;5.92;87.59;99370.13;1595475;89;21016;-78
2022/12/17 16:02:51;;;;;;;8.45;3.52;;;;;;;5.93;87.70;99367.98;1584737;89;21054;-77
2022/12/17 16:05:19;;;;;;;8.00;3.45;;;;;;;5.95;87.77;99376.17;1592605;89;21053;-78
2022/12/17 16:07:49;;;;;;;6.90;3.60;;;;;;;5.92;87.22;99379.16;1606091;89;21025;-77
2022/12/17 16:10:16;;;;;;;9.53;3.15;;;;;;;5.96;87.65;99388.20;1594484;88;21017;-78
2022/12/17 16:12:43;;;;;;;11.00;5.05;;;;;;;5.97;86.87;99396.83;1594924;89;21013;-78
2022/12/17 16:15:11;;;;;;;12.65;5.70;;;;;;;5.91;86.88;99401.97;1603520;89;21061;-77
2022/12/17 16:17:38;;;;;;;8.13;3.33;;;;;;;5.92;86.57;99412.70;1596537;89;21596;-78
2022/12/17 16:20:07;;;;;;;5.90;3.08;;;;;;;5.94;86.31;99410.98;1602699;89;21041;-77
2022/12/17 16:22:33;;;;;;;7.83;3.75;;;;;;;5.94;86.18;99414.41;1602707;89;21052;-77
2022/12/17 16:25:00;;;;;;;6.90;3.10;;;;;;;5.92;86.07;99416.57;1609055;89;21621;-77
2022/12/17 16:27:26;;;;;;;6.70;3.42;;;;;;;5.94;85.38;99422.59;1608535;89;21073;-77
2022/12/17 16:29:53;;;;;;;9.90;3.52;;;;;;;5.98;86.04;99433.37;1608053;89;21081;-77
2022/12/17 16:32:19;;;;;;;7.20;3.45;;;;;;;6.00;85.88;99431.64;1608421;89;21061;-78
2022/12/17 16:34:46;;;;;;;8.80;4.10;;;;;;;5.95;86.10;99426.94;1608386;89;21560;-77
2022/12/17 16:37:12;;;;;;;13.40;6.60;;;;;;;5.99;85.64;99429.94;1608367;89;21074;-77
2022/12/17 16:39:39;;;;;;;7.25;3.58;;;;;;;6.02;85.28;99433.79;1608507;88;21021;-78
2022/12/17 16:42:05;;;;;;;11.95;3.87;;;;;;;6.01;84.29;99442.82;1608460;89;21616;-77
2022/12/17 16:44:32;;;;;;;4.20;2.33;;;;;;;6.07;84.20;99444.98;1608465;89;21049;-77
2022/12/17 16:46:58;;;;;;;7.87;3.60;;;;;;;6.10;82.08;99456.58;1608361;88;21223;-77
2022/12/17 16:49:25;;;;;;;6.25;3.27;;;;;;;6.13;83.19;99450.58;1608512;89;21545;-77
2022/12/17 16:51:53;;;;;;;8.20;3.12;;;;;;;6.17;83.12;99449.70;1612218;87;21109;-77
2022/12/17 16:54:27;;;;;;;9.13;3.40;;;;;;;6.13;83.19;99452.72;1618349;89;21013;-78
2022/12/17 16:56:54;;;;;;;7.92;3.87;;;;;;;6.15;82.71;99457.45;1625537;88;21085;-78
2022/12/17 16:59:22;;;;;;;10.20;4.17;;;;;;;6.16;83.41;99463.02;1618503;89;21517;-78
2022/12/17 17:01:50;;;;;;;9.98;5.47;;;;;;;6.12;83.50;99465.63;1618333;88;21033;-78
2022/12/17 17:04:20;;;;;;;12.25;5.58;;;;;;;6.04;84.06;99469.49;1618366;89;21070;-77
2022/12/17 17:06:53;;;;;;;11.88;5.75;;;;;;;5.99;84.15;99468.66;1618631;88;21069;-77
2022/12/17 17:09:22;;;;;;;12.25;6.30;;;;;;;5.92;84.30;99467.75;1603880;88;21537;-77
2022/12/17 17:11:49;;;;;;;9.08;4.55;;;;;;;5.86;84.57;99472.06;1618308;88;20997;-77
2022/12/17 17:14:16;;;;;;;9.60;4.12;;;;;;;5.82;84.45;99481.52;1611805;89;21007;-78
2022/12/17 17:16:43;;;;;;;8.28;3.70;;;;;;;5.81;83.99;99482.39;1603753;89;21485;-77
2022/12/17 17:19:10;;;;;;;6.42;3.40;;;;;;;5.81;84.32;99482.39;1603693;89;21036;-78
2022/12/17 17:21:41;;;;;;;7.20;3.50;;;;;;;5.84;84.45;99489.27;1603705;89;21008;-78
2022/12/17 17:24:14;;;;;;;8.83;3.80;;;;;;;5.86;83.88;99493.98;1603734;89;21937;-78
2022/12/17 17:26:41;;;;;;;;;;;;;;;5.89;84.34;99487.52;1617631;88;20977;-77
2022/12/17 17:29:09;;;;;;;8.25;4.12;;;;;;;5.96;84.71;99494.45;1618310;88;20128;-75
2022/12/17 17:31:36;;;;;;;11.10;4.83;;;;;;;5.95;84.56;99494.04;1618287;89;21075;-75
2022/12/17 17:34:09;;;;;;;12.18;4.75;;;;;;;5.93;82.53;99496.58;1618306;89;21039;-76
2022/12/17 17:36:36;;;;;;;7.83;4.37;;;;;;;5.95;82.13;99501.78;1618423;88;21043;-76
2022/12/17 17:39:03;;;;;;;13.70;4.85;;;;;;;5.98;83.35;99491.44;1618277;88;21051;-76
2022/12/17 17:41:31;;;;;;;22.58;8.50;;;;;;;5.99;83.38;99491.88;1618310;89;21068;-75
2022/12/17 17:44:02;;;;;;;14.78;5.50;;;;;;;5.97;83.30;99499.62;1618364;88;21004;-75
2022/12/17 17:46:30;;;;;;;10.10;4.60;;;;;;;5.97;80.89;99516.83;1618383;87;21115;-75
2022/12/17 17:48:59;;;;;;;7.80;4.40;;;;;;;5.92;80.56;99527.09;1618069;89;21103;-76
2022/12/17 17:51:30;;;;;;;9.80;4.87;;;;;;;5.91;81.22;99538.73;1618072;89;21108;-75
2022/12/17 17:54:00;;;;;;;12.40;4.67;;;;;;;5.85;79.93;99541.28;1608915;89;21144;-75
2022/12/17 17:56:32;;;;;;;6.22;3.42;;;;;;;5.81;80.21;99543.43;1589835;90;21689;-76
2022/12/17 17:59:02;;;;;;;7.83;3.23;;;;;;;5.73;79.46;99555.02;1589420;90;21901;-75
2022/12/17 18:01:37;;;;;;;8.75;4.17;;;;;;;5.69;79.90;99558.05;1589416;90;21100;-75
2022/12/17 18:04:07;;;;;;;8.88;4.08;;;;;;;5.69;80.17;99565.79;1589039;90;21447;-75
2022/12/17 18:06:37;;;;;;;13.13;5.90;;;;;;;5.66;79.51;99581.25;1589023;90;21037;-76
2022/12/17 18:09:04;;;;;;;14.87;5.58;;;;;;;5.65;79.30;99585.98;1590186;89;21009;-75
2022/12/17 18:11:31;;;;;;;19.75;7.33;;;;;;;5.71;80.46;99586.00;1590342;90;21660;-75
2022/12/17 18:14:00;;;;;;;12.98;6.10;;;;;;;5.67;80.07;99585.56;1589542;90;21072;-76
2022/12/17 18:16:37;;;;;;;11.10;5.03;;;;;;;5.64;78.88;99595.86;1590343;89;21495;-77
2022/12/17 18:19:19;;;;;;;8.28;4.00;;;;;;;5.67;78.83;99596.28;1590383;90;21049;-77
2022/12/17 18:21:47;;;;;;;9.60;5.30;;;;;;;5.62;78.22;99592.85;1590288;89;21018;-77
2022/12/17 18:24:21;;;;;;;9.05;4.28;;;;;;;5.62;78.08;99598.01;1590319;90;21053;-77
2022/12/17 18:26:50;;;;;;;10.13;5.12;;;;;;;5.60;77.73;99603.16;1590228;90;21514;-77
2022/12/17 18:29:21;;;;;;;12.03;5.10;;;;;;;5.62;79.10;99613.05;1590275;90;21509;-77
2022/12/17 18:31:49;;;;;;;11.57;5.40;;;;;;;5.63;79.64;99619.06;1590134;90;21088;-77
2022/12/17 18:34:20;;;;;;;12.55;5.58;;;;;;;5.61;79.23;99622.95;1590246;90;20990;-77
2022/12/17 18:36:48;;;;;;;15.00;6.15;;;;;;;5.58;79.91;99622.48;1590368;90;21052;-77
2022/12/17 18:39:19;;;;;;;17.07;6.30;;;;;;;5.56;80.74;99623.35;1590258;89;21025;-76
2022/12/17 18:44:23;;;;;;;18.00;8.48;;;;;;;5.46;82.47;99622.88;1564549;90;21052;-77
2022/12/17 18:46:50;;;;;;;21.15;8.60;;;;;;;5.44;82.56;99632.33;1569998;90;22322;-78
2022/12/17 18:49:19;;;;;;;22.87;11.15;;;;;;;5.41;82.85;99641.33;1589087;89;21120;-78
2022/12/17 18:51:48;;;;;;;24.95;9.98;;;;;;;5.42;83.47;99642.63;1589553;89;21136;-77
2022/12/17 18:54:20;;;;;;;24.02;10.48;;;;;;;5.42;83.70;99646.50;1593072;90;21906;-77
2022/12/17 18:56:47;;;;;;;21.37;10.08;;;;;;;5.40;83.66;99652.08;1592829;89;21033;-77
2022/12/17 18:59:18;;;;;;;30.02;11.63;;;;;;;5.43;84.08;99661.54;1592840;90;21040;-77
2022/12/17 19:01:45;;;;;;;20.50;10.05;;;;;;;5.40;83.82;99658.53;1592697;90;21013;-75
2022/12/17 19:04:15;;;;;;;14.05;6.65;;;;;;;5.44;83.77;99661.55;1592924;89;21017;-77
2022/12/17 19:06:44;;;;;;;16.40;7.15;;;;;;;5.46;81.84;99658.55;1597663;89;21017;-75
2022/12/17 19:09:24;;;;;;;16.97;7.15;;;;;;;5.43;79.92;99673.14;1603749;89;21008;-76
2022/12/17 19:11:52;;;;;;;15.98;7.03;;;;;;;5.38;80.52;99668.83;1603127;89;21055;-75
2022/12/17 19:14:21;;;;;;;16.57;6.92;;;;;;;5.34;79.47;99689.00;1603643;89;21039;-76
2022/12/17 19:16:50;;;;;;;19.27;7.28;;;;;;;5.29;78.09;99689.42;1603730;89;21032;-75
2022/12/17 19:19:17;;;;;;;19.10;8.08;;;;;;;5.31;79.62;99690.30;1603788;88;21493;-75
2022/12/17 19:21:44;;;;;;;17.77;8.25;;;;;;;5.25;79.57;99688.97;1602577;89;21066;-75
2022/12/17 19:24:17;;;;;;;21.35;8.70;;;;;;;5.23;79.69;99691.94;1606006;88;21025;-75
2022/12/17 19:26:44;;;;;;;;;;;;;;;5.19;79.50;99687.62;1621350;89;21115;-76
2022/12/17 19:29:13;;;;;;;17.80;7.60;;;;;;;5.14;79.42;99684.17;1620416;89;20128;-77
2022/12/17 19:31:40;;;;;;;19.40;8.50;;;;;;;5.07;78.93;99689.69;1617620;88;21136;-76
2022/12/17 19:34:11;;;;;;;17.73;7.30;;;;;;;5.04;79.29;99690.97;1617603;89;21424;-75
2022/12/17 19:36:39;;;;;;;13.90;6.20;;;;;;;5.06;79.89;99698.72;1617440;89;21091;-74
2022/12/17 19:39:09;;;;;;;17.87;7.47;;;;;;;5.05;79.52;99709.44;1617387;87;21091;-75
2022/12/17 19:41:36;;;;;;;20.57;7.45;;;;;;;5.09;80.65;99718.05;1617346;89;21611;-75
2022/12/17 19:44:06;;;;;;;21.23;8.50;;;;;;;5.13;80.98;99712.06;1617292;89;21055;-75
2022/12/17 19:46:35;;;;;;;24.92;9.98;;;;;;;5.10;80.82;99719.36;1618267;87;21071;-77
2022/12/17 19:49:03;;;;;;;26.10;10.50;;;;;;;5.06;81.32;99715.47;1612863;88;21012;-75
2022/12/17 19:51:31;;;;;;;32.10;11.88;;;;;;;5.01;81.64;99710.70;1617921;88;21021;-75
2022/12/17 19:53:58;;;;;;;27.22;12.05;;;;;;;4.92;81.62;99717.52;1613722;87;21056;-75
2022/12/17 19:56:29;;;;;;;33.30;12.07;;;;;;;4.85;81.81;99722.60;1615124;89;21012;-77
2022/12/17 19:59:00;;;;;;;30.43;13.28;;;;;;;4.83;81.73;99722.58;1616864;89;20965;-77
2022/12/17 20:01:31;;;;;;;28.12;9.98;;;;;;;4.77;81.14;99725.11;1616916;88;21013;-77
2022/12/17 20:03:58;;;;;;;25.48;10.40;;;;;;;4.70;81.00;99743.52;1611636;88;21033;-78
2022/12/17 20:06:28;;;;;;;25.25;11.35;;;;;;;4.64;81.26;99743.91;1616332;89;21490;-77
2022/12/17 20:08:57;;;;;;;29.02;9.65;;;;;;;4.58;81.25;99750.70;1614627;88;21029;-77
2022/12/17 20:11:33;;;;;;;25.05;10.13;;;;;;;4.53;81.03;99749.79;1608016;89;21018;-78
2022/12/17 20:14:27;;;;;;;21.75;8.65;;;;;;;4.56;81.22;99754.12;1615170;88;21017;-77
2022/12/17 20:16:57;;;;;;;22.05;8.70;;;;;;;4.55;81.51;99765.27;1605017;89;21021;-77
2022/12/17 20:19:29;;;;;;;20.72;8.98;;;;;;;4.55;81.09;99772.98;1600489;89;21058;-77
2022/12/17 20:21:55;;;;;;;21.45;8.35;;;;;;;4.61;81.68;99770.47;1614598;89;21062;-77
2022/12/17 20:24:22;;;;;;;22.67;9.28;;;;;;;4.61;81.03;99768.33;1615213;88;20990;-77
2022/12/17 20:26:51;;;;;;;30.97;10.38;;;;;;;4.62;81.31;99767.06;1615355;89;21640;-77
2022/12/17 20:29:22;;;;;;;26.05;10.32;;;;;;;4.62;81.08;99776.08;1616868;88;21029;-78
2022/12/17 20:31:50;;;;;;;25.40;10.65;;;;;;;4.61;81.02;99779.92;1604998;89;21573;-78
2022/12/17 20:34:19;;;;;;;25.40;9.88;;;;;;;4.58;81.01;99790.63;1617465;88;21045;-77
2022/12/17 20:36:45;;;;;;;22.02;9.98;;;;;;;4.49;80.00;99790.52;1610485;88;21029;-77
2022/12/17 20:39:11;;;;;;;19.90;8.33;;;;;;;4.47;80.66;99790.07;1601790;89;20966;-76
2022/12/17 20:41:39;;;;;;;22.02;10.03;;;;;;;4.43;78.90;99803.77;1607445;88;20993;-75
2022/12/17 20:44:12;;;;;;;26.10;10.25;;;;;;;4.42;79.81;99805.48;1617489;89;21518;-75
2022/12/17 20:46:40;;;;;;;;;;;;;;;4.39;79.42;99819.59;1611147;88;21072;-76
2022/12/17 20:49:07;;;;;;;21.45;8.88;;;;;;;4.36;79.55;99820.86;1616549;89;20153;-75
2022/12/17 20:51:34;;;;;;;22.48;8.95;;;;;;;4.35;79.34;99832.84;1610160;88;21025;-75
2022/12/17 20:54:02;;;;;;;21.48;8.73;;;;;;;4.35;79.15;99825.55;1617683;88;21475;-75
2022/12/17 20:56:32;;;;;;;24.55;9.08;;;;;;;4.33;79.14;99828.10;1613059;88;21577;-75
2022/12/17 20:59:02;;;;;;;23.98;9.65;;;;;;;4.33;79.55;99841.41;1614840;89;21033;-76
2022/12/17 21:01:31;;;;;;;23.15;8.28;;;;;;;4.28;79.28;99848.23;1615546;88;20996;-75
2022/12/17 21:03:59;;;;;;;20.00;8.33;;;;;;;4.30;79.42;99845.25;1612310;89;21009;-76
2022/12/17 21:06:34;;;;;;;18.25;7.72;;;;;;;4.28;78.14;99855.52;1616412;88;20993;-76
2022/12/17 21:08:58;;;;;;;20.85;8.35;;;;;;;4.26;77.62;99853.75;1610061;88;21061;-75
2022/12/17 21:11:27;;;;;;;22.52;8.25;;;;;;;4.29;77.89;99859.80;1616721;89;20989;-76
2022/12/17 21:13:54;;;;;;;27.10;9.88;;;;;;;4.32;79.14;99867.58;1611180;88;21029;-75
2022/12/17 21:16:28;;;;;;;26.07;11.35;;;;;;;4.32;78.26;99862.86;1617172;88;21530;-75
2022/12/17 21:18:56;;;;;;;34.08;10.63;;;;;;;4.33;78.68;99874.88;1613571;88;21037;-76
2022/12/17 21:21:27;;;;;;;24.02;9.23;;;;;;;4.34;79.08;99874.05;1614172;89;20997;-75
2022/12/17 21:23:54;;;;;;;27.70;10.90;;;;;;;4.32;78.02;99868.02;1615766;88;21012;-78
2022/12/17 21:26:28;;;;;;;26.80;10.60;;;;;;;4.34;78.41;99873.61;1615642;89;21017;-77
2022/12/17 21:28:55;;;;;;;;;;;;;;;4.36;78.43;99880.08;1612808;88;20997;-78
2022/12/17 21:31:36;;;;;;;24.40;9.95;;;;;;;4.33;78.17;99890.31;1612389;89;20150;-78
2022/12/17 21:34:05;;;;;;;26.68;10.18;;;;;;;4.31;78.04;99890.29;1610249;88;21029;-77
2022/12/17 21:36:33;;;;;;;24.67;9.60;;;;;;;4.33;78.33;99896.32;1617897;88;21005;-77
2022/12/17 21:39:00;;;;;;;22.42;9.53;;;;;;;4.34;78.39;99898.06;1610044;88;21053;-77
2022/12/17 21:41:31;;;;;;;24.43;8.75;;;;;;;4.35;77.61;99900.21;1617701;88;21021;-78
2022/12/17 21:44:02;;;;;;;21.02;8.35;;;;;;;4.35;77.63;99902.78;1612421;88;20985;-78
2022/12/17 21:46:30;;;;;;;24.98;10.08;;;;;;;4.33;77.96;99907.91;1616189;87;21040;-77
2022/12/17 21:48:58;;;;;;;21.85;9.88;;;;;;;4.32;78.33;99908.77;1615186;88;21032;-78
2022/12/17 21:51:27;;;;;;;23.95;9.93;;;;;;;4.31;78.36;99915.17;1612677;89;21013;-78
2022/12/17 21:53:55;;;;;;;27.95;10.40;;;;;;;4.32;78.09;99915.64;1609655;87;21939;-78
2022/12/17 21:56:22;;;;;;;22.22;9.58;;;;;;;4.29;77.52;99927.16;1602871;89;21526;-78
2022/12/17 21:58:51;;;;;;;23.12;9.73;;;;;;;4.25;77.83;99931.83;1608185;88;20990;-78
2022/12/17 22:01:24;;;;;;;27.13;11.08;;;;;;;4.22;78.00;99933.05;1601069;89;21560;-78
2022/12/17 22:03:52;;;;;;;27.05;10.82;;;;;;;4.18;78.10;99936.89;1608186;89;21010;-78
2022/12/17 22:06:23;;;;;;;30.43;11.15;;;;;;;4.13;78.39;99944.09;1601031;89;21190;-77
2022/12/17 22:08:49;;;;;;;32.17;11.00;;;;;;;4.08;78.01;99952.16;1598720;89;21016;-77
2022/12/17 22:11:19;;;;;;;26.73;10.68;;;;;;;4.08;78.58;99950.48;1601483;89;21572;-77
2022/12/17 22:14:04;;;;;;;28.00;9.70;;;;;;;4.07;78.66;99950.44;1608263;88;21014;-77
2022/12/17 22:16:37;;;;;;;28.67;10.90;;;;;;;4.08;79.21;99960.77;1602076;88;21026;-78
2022/12/17 22:19:13;;;;;;;28.35;10.65;;;;;;;4.11;79.53;99958.22;1601993;89;21002;-77
2022/12/17 22:21:41;;;;;;;25.60;10.05;;;;;;;4.11;79.87;99972.38;1603183;89;20994;-77
2022/12/17 22:24:14;;;;;;;34.40;12.63;;;;;;;4.10;79.46;99971.95;1602564;89;21138;-78
2022/12/17 22:26:41;;;;;;;25.37;10.53;;;;;;;4.11;80.55;99967.23;1605130;88;21011;-77
2022/12/17 22:29:08;;;;;;;25.00;11.10;;;;;;;4.08;79.47;99973.63;1606039;89;21094;-77
2022/12/17 22:34:19;;;;;;;29.25;10.32;;;;;;;4.12;79.32;99968.98;1598340;89;21068;-78
2022/12/17 22:36:46;;;;;;;23.77;11.12;;;;;;;4.14;79.66;99969.00;1606655;88;21029;-77
2022/12/17 22:39:15;;;;;;;24.63;10.82;;;;;;;4.15;79.65;99978.44;1608804;89;21593;-77
2022/12/17 22:44:26;;;;;;;27.85;9.90;;;;;;;4.17;79.53;99987.91;1608351;89;21068;-78
2022/12/17 22:46:53;;;;;;;26.37;10.53;;;;;;;4.13;79.27;99982.27;1609241;88;21504;-78
2022/12/17 22:49:20;;;;;;;28.32;10.48;;;;;;;4.12;79.01;99988.28;1587628;89;21097;-77
2022/12/17 22:51:46;;;;;;;21.37;9.28;;;;;;;4.11;79.15;99994.68;1609064;88;21041;-78
2022/12/17 22:54:13;;;;;;;26.23;10.50;;;;;;;4.09;79.12;99992.08;1622360;88;21630;-77
2022/12/17 22:56:42;;;;;;;28.95;11.40;;;;;;;4.03;79.14;99991.98;1629293;88;21074;-77
2022/12/17 22:59:15;;;;;;;37.13;16.25;;;;;;;3.96;78.99;100000.47;1629262;87;21073;-78
2022/12/17 23:01:42;;;;;;;29.25;12.25;;;;;;;3.91;79.11;100006.80;1629786;87;21132;-77
2022/12/17 23:04:12;;;;;;;117.70;39.80;;;;;;;3.89;79.44;100010.20;1629157;87;21077;-77
2022/12/17 23:06:39;;;;;;;120.02;40.05;;;;;;;3.86;79.71;100008.84;1615167;88;20994;-78
2022/12/17 23:09:06;;;;;;;59.50;23.83;;;;;;;3.80;79.89;100018.64;1604509;88;21034;-77
2022/12/17 23:11:32;;;;;;;42.95;18.67;;;;;;;3.75;79.99;100008.68;1604554;88;21455;-77
2022/12/17 23:14:02;;;;;;;43.05;18.12;;;;;;;3.72;80.57;100012.08;1604517;89;21042;-78
2022/12/17 23:16:29;;;;;;;45.25;18.15;;;;;;;3.71;80.46;100021.04;1603250;88;21578;-78
2022/12/17 23:19:00;;;;;;;47.50;16.55;;;;;;;3.69;80.47;100026.16;1603252;88;21073;-77
2022/12/17 23:21:27;;;;;;;28.12;12.95;;;;;;;3.66;80.37;100023.55;1603965;88;21022;-78
2022/12/17 23:23:55;;;;;;;27.85;11.22;;;;;;;3.63;80.33;100024.77;1603148;88;21110;-78
2022/12/17 23:26:26;;;;;;;23.80;10.23;;;;;;;3.61;80.39;100027.72;1608925;88;21317;-77
2022/12/17 23:28:57;;;;;;;23.67;9.28;;;;;;;3.63;80.62;100040.19;1628722;87;21044;-78
2022/12/17 23:31:25;;;;;;;25.62;10.53;;;;;;;3.64;80.54;100035.91;1630455;87;21481;-77
2022/12/17 23:33:52;;;;;;;21.30;8.68;;;;;;;3.65;80.53;100037.22;1630350;87;21071;-77
2022/12/17 23:36:21;;;;;;;26.17;9.28;;;;;;;3.66;80.50;100049.27;1630416;87;21884;-77
2022/12/17 23:38:48;;;;;;;26.00;10.68;;;;;;;3.69;81.00;100051.87;1630520;87;21040;-78
2022/12/17 23:41:21;;;;;;;26.42;10.88;;;;;;;3.63;80.56;100052.19;1630470;88;21032;-77
2022/12/17 23:43:49;;;;;;;34.05;12.90;;;;;;;3.69;80.39;100062.16;1630622;88;21024;-77
2022/12/17 23:46:17;;;;;;;28.85;11.65;;;;;;;3.70;80.65;100057.87;1630458;87;21056;-77
2022/12/17 23:48:46;;;;;;;26.60;11.50;;;;;;;3.69;80.70;100061.30;1630336;86;21135;-77
2022/12/17 23:51:17;;;;;;;27.60;11.28;;;;;;;3.69;80.56;100069.88;1629891;87;21571;-77
2022/12/17 23:53:44;;;;;;;26.90;10.28;;;;;;;3.65;79.88;100064.66;1624566;87;21087;-77
2022/12/17 23:56:21;;;;;;;27.82;10.90;;;;;;;3.57;79.34;100068.37;1615914;88;21035;-77
2022/12/17 23:58:54;;;;;;;25.37;10.50;;;;;;;3.52;79.22;100068.29;1615819;89;21528;-77
